sensor_id;sensor_type;location;lat;lon;timestamp;pressure;altitude;pressure_sealevel;temperature;humidity
48156;BME280;35568;48.104;11.782;2022-12-18T00:01:58;96385.54;;;-2.59;47.48
48156;BME280;35568;48.104;11.782;2022-12-18T00:04:26;96388.90;;;-2.79;48.46
48156;BME280;35568;48.104;11.782;2022-12-18T00:06:54;96392.11;;;-2.52;48.58
48156;BME280;35568;48.104;11.782;2022-12-18T00:09:21;96390.83;;;-2.65;47.76
48156;BME280;35568;48.104;11.782;2022-12-18T00:11:49;96384.93;;;-2.62;47.86
48156;BME280;35568;48.104;11.782;2022-12-18T00:14:16;96386.99;;;-2.98;47.90
48156;BME280;35568;48.104;11.782;2022-12-18T00:16:46;96384.75;;;-3.33;47.96
48156;BME280;35568;48.104;11.782;2022-12-18T00:19:14;96378.87;;;-3.19;49.44
48156;BME280;35568;48.104;11.782;2022-12-18T00:21:42;96378.49;;;-2.82;49.21
48156;BME280;35568;48.104;11.782;2022-12-18T00:24:11;96376.10;;;-2.63;48.34
48156;BME280;35568;48.104;11.782;2022-12-18T00:26:39;96383.74;;;-2.82;47.36
48156;BME280;35568;48.104;11.782;2022-12-18T00:29:10;96381.49;;;-2.99;47.50
48156;BME280;35568;48.104;11.782;2022-12-18T00:31:37;96381.56;;;-3.36;48.98
48156;BME280;35568;48.104;11.782;2022-12-18T00:34:04;96384.90;;;-2.86;48.43
48156;BME280;35568;48.104;11.782;2022-12-18T00:36:34;96382.89;;;-3.55;48.52
48156;BME280;35568;48.104;11.782;2022-12-18T00:39:03;96377.90;;;-3.74;48.45
48156;BME280;35568;48.104;11.782;2022-12-18T00:41:32;96382.52;;;-3.54;48.32
48156;BME280;35568;48.104;11.782;2022-12-18T00:43:59;96382.76;;;-3.33;48.72
48156;BME280;35568;48.104;11.782;2022-12-18T00:46:26;96391.37;;;-3.74;49.31
48156;BME280;35568;48.104;11.782;2022-12-18T00:48:53;96401.08;;;-3.57;49.64
48156;BME280;35568;48.104;11.782;2022-12-18T00:51:20;96405.72;;;-3.10;48.57
48156;BME280;35568;48.104;11.782;2022-12-18T00:53:47;96403.16;;;-2.68;48.74
48156;BME280;35568;48.104;11.782;2022-12-18T00:56:13;96402.93;;;-2.92;48.95
48156;BME280;35568;48.104;11.782;2022-12-18T00:58:41;96406.15;;;-3.30;48.32
48156;BME280;35568;48.104;11.782;2022-12-18T01:01:08;96405.93;;;-3.34;48.23
48156;BME280;35568;48.104;11.782;2022-12-18T01:03:35;96409.43;;;-3.28;47.64
48156;BME280;35568;48.104;11.782;2022-12-18T01:06:06;96411.82;;;-3.31;47.83
48156;BME280;35568;48.104;11.782;2022-12-18T01:08:33;96413.52;;;-2.83;48.67
48156;BME280;35568;48.104;11.782;2022-12-18T01:11:00;96417.24;;;-2.86;47.95
48156;BME280;35568;48.104;11.782;2022-12-18T01:13:27;96412.97;;;-3.43;48.66
48156;BME280;35568;48.104;11.782;2022-12-18T01:15:54;96409.18;;;-3.14;48.61
48156;BME280;35568;48.104;11.782;2022-12-18T01:18:21;96410.00;;;-2.92;48.47
48156;BME280;35568;48.104;11.782;2022-12-18T01:20:48;96413.26;;;-2.78;48.26
48156;BME280;35568;48.104;11.782;2022-12-18T01:23:15;96417.21;;;-2.78;47.93
48156;BME280;35568;48.104;11.782;2022-12-18T01:25:42;96421.33;;;-2.89;48.31
48156;BME280;35568;48.104;11.782;2022-12-18T01:28:09;96427.39;;;-3.50;48.72
48156;BME280;35568;48.104;11.782;2022-12-18T01:30:36;96431.69;;;-3.40;49.38
48156;BME280;35568;48.104;11.782;2022-12-18T01:33:04;96433.88;;;-3.48;49.99
48156;BME280;35568;48.104;11.782;2022-12-18T01:35:31;96438.96;;;-3.52;49.48
48156;BME280;35568;48.104;11.782;2022-12-18T01:37:58;96443.15;;;-3.51;50.23
48156;BME280;35568;48.104;11.782;2022-12-18T01:40:25;96454.43;;;-3.28;49.58
48156;BME280;35568;48.104;11.782;2022-12-18T01:42:53;96462.89;;;-3.30;48.93
48156;BME280;35568;48.104;11.782;2022-12-18T01:45:26;96469.36;;;-3.26;48.92
48156;BME280;35568;48.104;11.782;2022-12-18T01:47:58;96476.15;;;-2.73;48.19
48156;BME280;35568;48.104;11.782;2022-12-18T01:50:30;96475.64;;;-2.93;48.08
48156;BME280;35568;48.104;11.782;2022-12-18T01:53:02;96473.35;;;-2.64;48.23
48156;BME280;35568;48.104;11.782;2022-12-18T01:55:32;96466.69;;;-2.70;47.27
48156;BME280;35568;48.104;11.782;2022-12-18T01:58:02;96460.59;;;-2.86;47.56
48156;BME280;35568;48.104;11.782;2022-12-18T02:00:30;96459.89;;;-2.82;47.96
48156;BME280;35568;48.104;11.782;2022-12-18T02:02:57;96465.79;;;-2.95;47.83
48156;BME280;35568;48.104;11.782;2022-12-18T02:05:34;96467.91;;;-2.99;47.90
48156;BME280;35568;48.104;11.782;2022-12-18T02:08:09;96467.61;;;-3.20;49.84
48156;BME280;35568;48.104;11.782;2022-12-18T02:10:43;96460.27;;;-3.20;49.81
48156;BME280;35568;48.104;11.782;2022-12-18T02:13:17;96450.42;;;-2.94;48.98
48156;BME280;35568;48.104;11.782;2022-12-18T02:15:53;96448.11;;;-2.91;48.03
48156;BME280;35568;48.104;11.782;2022-12-18T02:18:26;96446.76;;;-2.87;47.91
48156;BME280;35568;48.104;11.782;2022-12-18T02:20:59;96452.42;;;-2.90;47.83
48156;BME280;35568;48.104;11.782;2022-12-18T02:23:44;96450.37;;;-2.94;48.10
48156;BME280;35568;48.104;11.782;2022-12-18T02:26:18;96452.57;;;-3.08;48.62
48156;BME280;35568;48.104;11.782;2022-12-18T02:28:51;96451.62;;;-2.75;48.17
48156;BME280;35568;48.104;11.782;2022-12-18T02:31:24;96448.71;;;-3.00;48.26
48156;BME280;35568;48.104;11.782;2022-12-18T02:33:54;96447.01;;;-2.54;47.29
48156;BME280;35568;48.104;11.782;2022-12-18T02:36:24;96443.64;;;-2.99;48.10
48156;BME280;35568;48.104;11.782;2022-12-18T02:38:53;96439.44;;;-3.09;48.13
48156;BME280;35568;48.104;11.782;2022-12-18T02:41:21;96442.48;;;-2.80;47.18
48156;BME280;35568;48.104;11.782;2022-12-18T02:43:49;96444.16;;;-2.72;48.11
48156;BME280;35568;48.104;11.782;2022-12-18T02:46:27;96442.94;;;-2.91;48.08
48156;BME280;35568;48.104;11.782;2022-12-18T02:49:03;96443.10;;;-2.58;47.79
48156;BME280;35568;48.104;11.782;2022-12-18T02:51:40;96442.79;;;-2.54;47.66
48156;BME280;35568;48.104;11.782;2022-12-18T02:54:21;96438.87;;;-2.50;47.84
48156;BME280;35568;48.104;11.782;2022-12-18T02:56:53;96438.39;;;-2.99;47.54
48156;BME280;35568;48.104;11.782;2022-12-18T02:59:25;96441.46;;;-2.75;47.79
48156;BME280;35568;48.104;11.782;2022-12-18T03:02:01;96439.42;;;-2.44;48.02
48156;BME280;35568;48.104;11.782;2022-12-18T03:04:31;96439.64;;;-2.40;47.33
48156;BME280;35568;48.104;11.782;2022-12-18T03:07:03;96438.44;;;-2.51;46.75
48156;BME280;35568;48.104;11.782;2022-12-18T03:09:34;96441.68;;;-2.41;46.82
48156;BME280;35568;48.104;11.782;2022-12-18T03:12:07;96446.10;;;-2.37;46.90
48156;BME280;35568;48.104;11.782;2022-12-18T03:14:38;96445.21;;;-2.59;46.78
48156;BME280;35568;48.104;11.782;2022-12-18T03:17:11;96444.38;;;-3.00;47.45
48156;BME280;35568;48.104;11.782;2022-12-18T03:19:40;96444.56;;;-2.82;47.40
48156;BME280;35568;48.104;11.782;2022-12-18T03:22:10;96444.87;;;-2.50;47.40
48156;BME280;35568;48.104;11.782;2022-12-18T03:24:37;96446.78;;;-2.27;46.72
48156;BME280;35568;48.104;11.782;2022-12-18T03:27:06;96446.56;;;-2.65;47.26
48156;BME280;35568;48.104;11.782;2022-12-18T03:29:38;96442.87;;;-2.65;46.95
48156;BME280;35568;48.104;11.782;2022-12-18T03:32:10;96439.02;;;-2.56;46.97
48156;BME280;35568;48.104;11.782;2022-12-18T03:34:40;96435.98;;;-2.73;47.79
48156;BME280;35568;48.104;11.782;2022-12-18T03:37:09;96429.41;;;-2.53;46.90
48156;BME280;35568;48.104;11.782;2022-12-18T03:39:36;96427.20;;;-2.81;47.06
48156;BME280;35568;48.104;11.782;2022-12-18T03:42:08;96431.16;;;-2.69;47.45
48156;BME280;35568;48.104;11.782;2022-12-18T03:44:41;96434.42;;;-2.73;48.67
48156;BME280;35568;48.104;11.782;2022-12-18T03:47:14;96434.12;;;-2.50;47.76
48156;BME280;35568;48.104;11.782;2022-12-18T03:49:47;96437.70;;;-2.64;47.64
48156;BME280;35568;48.104;11.782;2022-12-18T03:52:20;96443.55;;;-2.42;47.56
48156;BME280;35568;48.104;11.782;2022-12-18T03:54:49;96446.78;;;-2.35;47.56
48156;BME280;35568;48.104;11.782;2022-12-18T03:57:19;96450.80;;;-2.59;46.89
48156;BME280;35568;48.104;11.782;2022-12-18T03:59:50;96453.63;;;-2.63;47.24
48156;BME280;35568;48.104;11.782;2022-12-18T04:03:02;96442.85;;;-2.34;47.54
48156;BME280;35568;48.104;11.782;2022-12-18T04:05:32;96442.03;;;-2.11;46.93
48156;BME280;35568;48.104;11.782;2022-12-18T04:08:00;96440.32;;;-2.00;46.11
48156;BME280;35568;48.104;11.782;2022-12-18T04:10:28;96446.61;;;-2.40;46.52
48156;BME280;35568;48.104;11.782;2022-12-18T04:12:56;96445.88;;;-2.91;47.71
48156;BME280;35568;48.104;11.782;2022-12-18T04:15:23;96443.38;;;-2.84;48.40
48156;BME280;35568;48.104;11.782;2022-12-18T04:17:50;96449.79;;;-2.75;47.64
48156;BME280;35568;48.104;11.782;2022-12-18T04:20:17;96452.89;;;-3.02;47.86
48156;BME280;35568;48.104;11.782;2022-12-18T04:22:44;96455.46;;;-2.60;48.11
48156;BME280;35568;48.104;11.782;2022-12-18T04:25:11;96461.13;;;-2.46;46.99
48156;BME280;35568;48.104;11.782;2022-12-18T04:27:38;96456.49;;;-2.63;47.80
48156;BME280;35568;48.104;11.782;2022-12-18T04:30:06;96450.14;;;-3.19;47.76
48156;BME280;35568;48.104;11.782;2022-12-18T04:32:33;96447.46;;;-3.11;48.06
48156;BME280;35568;48.104;11.782;2022-12-18T04:35:01;96449.36;;;-3.03;47.50
48156;BME280;35568;48.104;11.782;2022-12-18T04:37:27;96454.14;;;-2.79;48.51
48156;BME280;35568;48.104;11.782;2022-12-18T04:39:55;96458.91;;;-2.39;48.50
48156;BME280;35568;48.104;11.782;2022-12-18T04:42:22;96455.61;;;-2.31;48.50
48156;BME280;35568;48.104;11.782;2022-12-18T04:44:48;96449.50;;;-2.52;47.64
48156;BME280;35568;48.104;11.782;2022-12-18T04:47:16;96456.27;;;-2.43;47.11
48156;BME280;35568;48.104;11.782;2022-12-18T04:49:43;96460.23;;;-2.35;46.77
48156;BME280;35568;48.104;11.782;2022-12-18T04:52:10;96464.69;;;-2.26;46.64
48156;BME280;35568;48.104;11.782;2022-12-18T04:54:37;96467.47;;;-2.02;46.97
48156;BME280;35568;48.104;11.782;2022-12-18T04:57:04;96472.04;;;-1.94;46.91
48156;BME280;35568;48.104;11.782;2022-12-18T04:59:32;96478.45;;;-2.08;46.59
48156;BME280;35568;48.104;11.782;2022-12-18T05:01:58;96484.59;;;-2.58;46.90
48156;BME280;35568;48.104;11.782;2022-12-18T05:04:25;96479.09;;;-2.30;46.89
48156;BME280;35568;48.104;11.782;2022-12-18T05:06:52;96478.70;;;-2.46;47.70
48156;BME280;35568;48.104;11.782;2022-12-18T05:09:19;96484.28;;;-2.73;47.71
48156;BME280;35568;48.104;11.782;2022-12-18T05:11:46;96483.96;;;-2.51;48.19
48156;BME280;35568;48.104;11.782;2022-12-18T05:14:13;96482.94;;;-2.46;47.07
48156;BME280;35568;48.104;11.782;2022-12-18T05:16:40;96481.01;;;-2.26;47.13
48156;BME280;35568;48.104;11.782;2022-12-18T05:19:07;96491.04;;;-2.10;47.19
48156;BME280;35568;48.104;11.782;2022-12-18T05:21:34;96499.11;;;-2.09;46.32
48156;BME280;35568;48.104;11.782;2022-12-18T05:24:01;96497.50;;;-2.14;46.15
48156;BME280;35568;48.104;11.782;2022-12-18T05:26:28;96498.60;;;-2.41;47.80
48156;BME280;35568;48.104;11.782;2022-12-18T05:28:55;96495.88;;;-2.20;46.17
48156;BME280;35568;48.104;11.782;2022-12-18T05:31:22;96493.62;;;-2.83;47.27
48156;BME280;35568;48.104;11.782;2022-12-18T05:33:49;96498.80;;;-2.96;47.54
48156;BME280;35568;48.104;11.782;2022-12-18T05:36:16;96497.37;;;-2.96;48.20
48156;BME280;35568;48.104;11.782;2022-12-18T05:38:43;96493.08;;;-2.79;48.64
48156;BME280;35568;48.104;11.782;2022-12-18T05:41:10;96494.37;;;-2.85;47.63
48156;BME280;35568;48.104;11.782;2022-12-18T05:43:39;96499.33;;;-2.65;47.19
48156;BME280;35568;48.104;11.782;2022-12-18T05:46:07;96502.90;;;-2.69;47.00
48156;BME280;35568;48.104;11.782;2022-12-18T05:48:35;96509.48;;;-2.88;47.23
48156;BME280;35568;48.104;11.782;2022-12-18T05:51:05;96507.84;;;-2.38;48.15
48156;BME280;35568;48.104;11.782;2022-12-18T05:53:33;96502.79;;;-2.69;47.09
48156;BME280;35568;48.104;11.782;2022-12-18T05:56:02;96504.50;;;-2.83;47.17
48156;BME280;35568;48.104;11.782;2022-12-18T05:58:30;96506.18;;;-2.51;47.19
48156;BME280;35568;48.104;11.782;2022-12-18T06:01:06;96512.55;;;-2.90;47.08
48156;BME280;35568;48.104;11.782;2022-12-18T06:03:33;96514.89;;;-3.06;46.97
48156;BME280;35568;48.104;11.782;2022-12-18T06:06:00;96521.86;;;-3.23;48.02
48156;BME280;35568;48.104;11.782;2022-12-18T06:08:27;96526.37;;;-2.51;47.68
48156;BME280;35568;48.104;11.782;2022-12-18T06:10:54;96524.16;;;-3.69;47.68
48156;BME280;35568;48.104;11.782;2022-12-18T06:13:21;96520.99;;;-3.02;47.83
48156;BME280;35568;48.104;11.782;2022-12-18T06:15:48;96514.41;;;-3.36;47.50
48156;BME280;35568;48.104;11.782;2022-12-18T06:18:15;96517.28;;;-3.41;48.59
48156;BME280;35568;48.104;11.782;2022-12-18T06:20:42;96520.50;;;-3.26;48.14
48156;BME280;35568;48.104;11.782;2022-12-18T06:23:09;96523.37;;;-2.77;47.57
48156;BME280;35568;48.104;11.782;2022-12-18T06:25:38;96527.20;;;-3.29;48.20
48156;BME280;35568;48.104;11.782;2022-12-18T06:28:05;96523.11;;;-3.38;48.28
48156;BME280;35568;48.104;11.782;2022-12-18T06:30:32;96523.37;;;-3.34;48.55
48156;BME280;35568;48.104;11.782;2022-12-18T06:32:59;96524.11;;;-3.03;48.77
48156;BME280;35568;48.104;11.782;2022-12-18T06:35:26;96527.83;;;-3.80;48.84
48156;BME280;35568;48.104;11.782;2022-12-18T06:37:53;96527.19;;;-3.43;48.15
48156;BME280;35568;48.104;11.782;2022-12-18T06:40:20;96531.40;;;-3.04;47.92
48156;BME280;35568;48.104;11.782;2022-12-18T06:42:47;96528.38;;;-3.24;48.19
48156;BME280;35568;48.104;11.782;2022-12-18T06:45:16;96528.55;;;-3.49;48.45
48156;BME280;35568;48.104;11.782;2022-12-18T06:47:43;96533.90;;;-3.00;48.72
48156;BME280;35568;48.104;11.782;2022-12-18T06:50:11;96540.15;;;-3.40;48.25
48156;BME280;35568;48.104;11.782;2022-12-18T06:52:38;96541.67;;;-3.06;48.39
48156;BME280;35568;48.104;11.782;2022-12-18T06:55:09;96544.29;;;-2.95;47.19
48156;BME280;35568;48.104;11.782;2022-12-18T06:57:37;96548.04;;;-3.04;47.66
48156;BME280;35568;48.104;11.782;2022-12-18T07:00:06;96551.52;;;-2.76;48.08
48156;BME280;35568;48.104;11.782;2022-12-18T07:02:34;96552.55;;;-2.65;47.39
48156;BME280;35568;48.104;11.782;2022-12-18T07:05:01;96552.10;;;-2.28;46.66
48156;BME280;35568;48.104;11.782;2022-12-18T07:07:28;96554.87;;;-2.43;46.86
48156;BME280;35568;48.104;11.782;2022-12-18T07:09:54;96563.42;;;-1.79;46.04
48156;BME280;35568;48.104;11.782;2022-12-18T07:12:21;96566.11;;;-2.10;45.73
48156;BME280;35568;48.104;11.782;2022-12-18T07:14:48;96575.71;;;-2.28;45.90
48156;BME280;35568;48.104;11.782;2022-12-18T07:17:15;96577.62;;;-2.46;46.29
48156;BME280;35568;48.104;11.782;2022-12-18T07:19:42;96578.41;;;-2.74;46.22
48156;BME280;35568;48.104;11.782;2022-12-18T07:22:10;96578.11;;;-2.68;46.75
48156;BME280;35568;48.104;11.782;2022-12-18T07:24:39;96581.23;;;-2.79;47.07
48156;BME280;35568;48.104;11.782;2022-12-18T07:27:05;96585.65;;;-2.61;47.33
48156;BME280;35568;48.104;11.782;2022-12-18T07:29:33;96586.50;;;-2.59;47.12
48156;BME280;35568;48.104;11.782;2022-12-18T07:32:00;96587.68;;;-2.75;47.17
48156;BME280;35568;48.104;11.782;2022-12-18T07:34:27;96589.55;;;-3.13;48.41
48156;BME280;35568;48.104;11.782;2022-12-18T07:36:54;96591.86;;;-2.85;47.05
48156;BME280;35568;48.104;11.782;2022-12-18T07:39:21;96597.86;;;-2.46;47.05
48156;BME280;35568;48.104;11.782;2022-12-18T07:41:48;96602.33;;;-2.51;46.95
48156;BME280;35568;48.104;11.782;2022-12-18T07:44:15;96597.49;;;-3.12;47.91
48156;BME280;35568;48.104;11.782;2022-12-18T07:46:43;96597.34;;;-2.79;47.38
48156;BME280;35568;48.104;11.782;2022-12-18T07:49:10;96597.38;;;-2.92;46.89
48156;BME280;35568;48.104;11.782;2022-12-18T07:51:37;96596.94;;;-2.79;47.69
48156;BME280;35568;48.104;11.782;2022-12-18T07:54:05;96591.29;;;-2.68;47.28
48156;BME280;35568;48.104;11.782;2022-12-18T07:56:32;96584.81;;;-2.63;46.65
48156;BME280;35568;48.104;11.782;2022-12-18T07:58:59;96590.33;;;-2.85;46.59
48156;BME280;35568;48.104;11.782;2022-12-18T08:01:26;96588.00;;;-3.11;46.62
48156;BME280;35568;48.104;11.782;2022-12-18T08:03:53;96593.10;;;-2.97;46.86
48156;BME280;35568;48.104;11.782;2022-12-18T08:06:20;96593.60;;;-3.28;46.85
48156;BME280;35568;48.104;11.782;2022-12-18T08:08:48;96590.25;;;-3.46;47.01
48156;BME280;35568;48.104;11.782;2022-12-18T08:11:15;96580.93;;;-3.09;47.63
48156;BME280;35568;48.104;11.782;2022-12-18T08:13:41;96580.88;;;-2.80;47.46
48156;BME280;35568;48.104;11.782;2022-12-18T08:16:09;96585.07;;;-3.77;47.11
48156;BME280;35568;48.104;11.782;2022-12-18T08:18:36;96595.69;;;-4.20;48.37
48156;BME280;35568;48.104;11.782;2022-12-18T08:21:13;96603.19;;;-3.83;48.81
48156;BME280;35568;48.104;11.782;2022-12-18T08:23:40;96611.07;;;-3.62;48.35
48156;BME280;35568;48.104;11.782;2022-12-18T08:26:08;96612.50;;;-3.13;47.86
48156;BME280;35568;48.104;11.782;2022-12-18T08:28:35;96612.37;;;-3.46;48.65
48156;BME280;35568;48.104;11.782;2022-12-18T08:31:02;96613.41;;;-2.86;47.62
48156;BME280;35568;48.104;11.782;2022-12-18T08:33:29;96614.58;;;-2.83;46.82
48156;BME280;35568;48.104;11.782;2022-12-18T08:35:58;96617.22;;;-3.23;46.95
48156;BME280;35568;48.104;11.782;2022-12-18T08:38:25;96617.48;;;-3.14;48.18
48156;BME280;35568;48.104;11.782;2022-12-18T08:40:58;96622.75;;;-3.60;48.15
48156;BME280;35568;48.104;11.782;2022-12-18T08:43:25;96619.04;;;-2.75;47.20
48156;BME280;35568;48.104;11.782;2022-12-18T08:45:53;96621.65;;;-2.76;47.25
48156;BME280;35568;48.104;11.782;2022-12-18T08:48:21;96619.08;;;-2.40;46.52
48156;BME280;35568;48.104;11.782;2022-12-18T08:50:54;96622.30;;;-3.16;46.99
48156;BME280;35568;48.104;11.782;2022-12-18T08:53:20;96621.00;;;-3.24;46.80
48156;BME280;35568;48.104;11.782;2022-12-18T08:55:48;96619.08;;;-2.90;47.72
48156;BME280;35568;48.104;11.782;2022-12-18T08:58:15;96614.97;;;-2.86;46.64
48156;BME280;35568;48.104;11.782;2022-12-18T09:00:42;96615.19;;;-2.76;45.61
48156;BME280;35568;48.104;11.782;2022-12-18T09:03:12;96615.59;;;-2.42;46.15
48156;BME280;35568;48.104;11.782;2022-12-18T09:05:39;96615.81;;;-2.08;46.82
48156;BME280;35568;48.104;11.782;2022-12-18T09:08:07;96618.32;;;-2.35;45.79
48156;BME280;35568;48.104;11.782;2022-12-18T09:10:40;96625.25;;;-2.61;45.64
48156;BME280;35568;48.104;11.782;2022-12-18T09:13:08;96629.36;;;-2.62;46.29
48156;BME280;35568;48.104;11.782;2022-12-18T09:15:40;96631.36;;;-2.73;45.82
48156;BME280;35568;48.104;11.782;2022-12-18T09:18:07;96637.69;;;-2.48;45.75
48156;BME280;35568;48.104;11.782;2022-12-18T09:20:35;96635.06;;;-2.25;45.53
48156;BME280;35568;48.104;11.782;2022-12-18T09:23:02;96631.51;;;-2.02;45.95
48156;BME280;35568;48.104;11.782;2022-12-18T09:25:29;96627.40;;;-2.09;45.37
48156;BME280;35568;48.104;11.782;2022-12-18T09:27:57;96622.34;;;-2.19;44.65
48156;BME280;35568;48.104;11.782;2022-12-18T09:30:24;96620.24;;;-1.88;45.42
48156;BME280;35568;48.104;11.782;2022-12-18T09:32:53;96619.98;;;-1.84;45.64
48156;BME280;35568;48.104;11.782;2022-12-18T09:35:20;96619.84;;;-2.20;44.94
48156;BME280;35568;48.104;11.782;2022-12-18T09:37:47;96624.97;;;-2.69;46.12
48156;BME280;35568;48.104;11.782;2022-12-18T09:40:16;96627.60;;;-2.57;45.70
48156;BME280;35568;48.104;11.782;2022-12-18T09:42:46;96626.87;;;-2.02;45.52
48156;BME280;35568;48.104;11.782;2022-12-18T09:45:15;96628.19;;;-2.80;45.73
48156;BME280;35568;48.104;11.782;2022-12-18T09:47:45;96631.80;;;-2.56;45.86
48156;BME280;35568;48.104;11.782;2022-12-18T09:50:24;96633.55;;;-1.99;45.49
48156;BME280;35568;48.104;11.782;2022-12-18T09:52:55;96633.99;;;-1.76;44.93
48156;BME280;35568;48.104;11.782;2022-12-18T09:55:27;96631.53;;;-2.10;44.89
48156;BME280;35568;48.104;11.782;2022-12-18T09:57:56;96628.52;;;-1.68;44.60
48156;BME280;35568;48.104;11.782;2022-12-18T10:00:25;96617.21;;;-2.59;44.85
48156;BME280;35568;48.104;11.782;2022-12-18T10:02:56;96613.50;;;-1.90;45.54
48156;BME280;35568;48.104;11.782;2022-12-18T10:05:33;96606.64;;;-1.87;44.96
48156;BME280;35568;48.104;11.782;2022-12-18T10:08:07;96603.22;;;-1.43;45.12
48156;BME280;35568;48.104;11.782;2022-12-18T10:10:41;96601.30;;;-1.95;44.67
48156;BME280;35568;48.104;11.782;2022-12-18T10:13:18;96595.48;;;-1.86;45.26
48156;BME280;35568;48.104;11.782;2022-12-18T10:15:54;96594.02;;;-1.81;45.06
48156;BME280;35568;48.104;11.782;2022-12-18T10:18:35;96591.40;;;-1.31;44.61
48156;BME280;35568;48.104;11.782;2022-12-18T10:21:10;96587.10;;;-0.94;44.25
48156;BME280;35568;48.104;11.782;2022-12-18T10:23:45;96587.96;;;-1.20;44.03
48156;BME280;35568;48.104;11.782;2022-12-18T10:26:17;96584.47;;;-2.13;44.29
48156;BME280;35568;48.104;11.782;2022-12-18T10:28:45;96581.60;;;-3.31;46.09
48156;BME280;35568;48.104;11.782;2022-12-18T10:31:15;96580.34;;;-2.86;45.85
48156;BME280;35568;48.104;11.782;2022-12-18T10:33:42;96580.21;;;-2.59;46.13
48156;BME280;35568;48.104;11.782;2022-12-18T10:36:10;96579.03;;;-2.51;46.21
48156;BME280;35568;48.104;11.782;2022-12-18T10:38:37;96577.38;;;-2.39;45.52
48156;BME280;35568;48.104;11.782;2022-12-18T10:41:06;96569.29;;;-2.47;46.34
48156;BME280;35568;48.104;11.782;2022-12-18T10:43:34;96566.94;;;-1.90;45.12
48156;BME280;35568;48.104;11.782;2022-12-18T10:46:12;96569.49;;;-1.80;44.95
48156;BME280;35568;48.104;11.782;2022-12-18T10:48:49;96566.50;;;-1.89;45.32
48156;BME280;35568;48.104;11.782;2022-12-18T10:51:23;96573.52;;;-1.78;43.96
48156;BME280;35568;48.104;11.782;2022-12-18T10:53:55;96574.38;;;-2.25;45.75
48156;BME280;35568;48.104;11.782;2022-12-18T10:56:24;96578.25;;;-1.87;46.26
48156;BME280;35568;48.104;11.782;2022-12-18T10:58:58;96583.56;;;-1.85;45.19
48156;BME280;35568;48.104;11.782;2022-12-18T11:01:25;96579.19;;;-1.58;44.58
48156;BME280;35568;48.104;11.782;2022-12-18T11:04:02;96569.68;;;-1.86;44.75
48156;BME280;35568;48.104;11.782;2022-12-18T11:06:34;96569.62;;;-2.65;45.63
48156;BME280;35568;48.104;11.782;2022-12-18T11:09:20;96577.51;;;-2.53;45.42
48156;BME280;35568;48.104;11.782;2022-12-18T11:11:48;96576.12;;;-1.97;45.70
48156;BME280;35568;48.104;11.782;2022-12-18T11:14:19;96574.15;;;-1.70;44.98
48156;BME280;35568;48.104;11.782;2022-12-18T11:16:50;96572.75;;;-1.63;44.60
48156;BME280;35568;48.104;11.782;2022-12-18T11:19:29;96577.85;;;-1.54;43.08
48156;BME280;35568;48.104;11.782;2022-12-18T11:21:58;96575.93;;;-1.06;43.41
48156;BME280;35568;48.104;11.782;2022-12-18T11:24:29;96575.65;;;-1.00;43.81
48156;BME280;35568;48.104;11.782;2022-12-18T11:26:59;96577.55;;;-0.80;43.70
48156;BME280;35568;48.104;11.782;2022-12-18T11:29:32;96584.38;;;-1.12;43.00
48156;BME280;35568;48.104;11.782;2022-12-18T11:32:34;96580.49;;;-0.95;42.68
48156;BME280;35568;48.104;11.782;2022-12-18T11:35:12;96582.66;;;-0.85;42.97
48156;BME280;35568;48.104;11.782;2022-12-18T11:37:46;96588.26;;;-1.90;43.70
48156;BME280;35568;48.104;11.782;2022-12-18T11:40:18;96587.69;;;-1.65;44.24
48156;BME280;35568;48.104;11.782;2022-12-18T11:42:51;96582.01;;;-0.91;43.24
48156;BME280;35568;48.104;11.782;2022-12-18T11:45:27;96579.86;;;-0.80;42.87
48156;BME280;35568;48.104;11.782;2022-12-18T11:47:59;96575.37;;;-0.63;42.29
48156;BME280;35568;48.104;11.782;2022-12-18T11:50:31;96564.94;;;-0.82;42.34
48156;BME280;35568;48.104;11.782;2022-12-18T11:53:00;96564.74;;;-1.67;43.69
48156;BME280;35568;48.104;11.782;2022-12-18T11:55:37;96561.79;;;-1.38;43.97
48156;BME280;35568;48.104;11.782;2022-12-18T11:58:12;96558.27;;;-0.95;43.94
48156;BME280;35568;48.104;11.782;2022-12-18T12:01:02;96563.71;;;-1.38;44.61
48156;BME280;35568;48.104;11.782;2022-12-18T12:03:50;96563.06;;;-1.05;44.17
48156;BME280;35568;48.104;11.782;2022-12-18T12:06:27;96561.45;;;-1.21;44.09
48156;BME280;35568;48.104;11.782;2022-12-18T12:09:06;96560.22;;;-1.22;44.51
48156;BME280;35568;48.104;11.782;2022-12-18T12:11:47;96561.74;;;-1.21;43.72
48156;BME280;35568;48.104;11.782;2022-12-18T12:14:29;96559.13;;;-0.72;43.58
48156;BME280;35568;48.104;11.782;2022-12-18T12:16:59;96555.16;;;-0.34;42.23
48156;BME280;35568;48.104;11.782;2022-12-18T12:19:41;96560.01;;;-0.75;42.55
48156;BME280;35568;48.104;11.782;2022-12-18T12:22:18;96548.93;;;-0.61;43.51
48156;BME280;35568;48.104;11.782;2022-12-18T12:25:01;96544.50;;;-0.49;42.85
48156;BME280;35568;48.104;11.782;2022-12-18T12:27:38;96547.87;;;-0.10;42.50
48156;BME280;35568;48.104;11.782;2022-12-18T12:30:09;96543.29;;;-0.92;42.28
48156;BME280;35568;48.104;11.782;2022-12-18T12:32:49;96545.23;;;-0.73;42.98
48156;BME280;35568;48.104;11.782;2022-12-18T12:35:29;96544.40;;;-0.89;43.37
48156;BME280;35568;48.104;11.782;2022-12-18T12:38:06;96538.22;;;-0.90;44.22
48156;BME280;35568;48.104;11.782;2022-12-18T12:40:41;96527.78;;;-0.62;44.24
48156;BME280;35568;48.104;11.782;2022-12-18T12:43:21;96524.59;;;-0.94;43.57
48156;BME280;35568;48.104;11.782;2022-12-18T12:45:53;96520.25;;;-1.93;43.84
48156;BME280;35568;48.104;11.782;2022-12-18T12:48:34;96516.21;;;-1.36;43.92
48156;BME280;35568;48.104;11.782;2022-12-18T12:51:07;96520.78;;;-1.27;44.25
48156;BME280;35568;48.104;11.782;2022-12-18T12:53:37;96521.99;;;-1.21;44.07
48156;BME280;35568;48.104;11.782;2022-12-18T12:56:05;96522.59;;;-1.20;44.61
48156;BME280;35568;48.104;11.782;2022-12-18T12:58:40;96528.02;;;-1.57;44.18
48156;BME280;35568;48.104;11.782;2022-12-18T13:01:17;96534.77;;;-2.82;45.21
48156;BME280;35568;48.104;11.782;2022-12-18T13:03:55;96534.86;;;-1.76;44.37
48156;BME280;35568;48.104;11.782;2022-12-18T13:06:30;96532.52;;;-2.22;45.24